createdAt,value
2018-09-12T00:00:12.427Z,14.40
2018-09-12T00:02:41.273Z,14.27
2018-09-12T00:05:10.135Z,12.13
2018-09-12T00:07:38.998Z,14.23
2018-09-12T00:10:07.869Z,13.13
2018-09-12T00:12:36.779Z,11.70
2018-09-12T00:15:05.656Z,13.93
2018-09-12T00:17:34.469Z,12.07
2018-09-12T00:20:03.375Z,11.93
2018-09-12T00:22:32.197Z,11.77
2018-09-12T00:25:01.194Z,11.97
2018-09-12T00:27:30.073Z,11.90
2018-09-12T00:29:58.966Z,15.00
2018-09-12T00:32:27.826Z,11.37
2018-09-12T00:34:56.689Z,13.87
2018-09-12T00:37:25.539Z,15.63
2018-09-12T00:39:54.373Z,12.03
2018-09-12T00:42:24.434Z,12.57
2018-09-12T00:44:53.241Z,13.77
2018-09-12T00:47:22.041Z,13.80
2018-09-12T00:49:50.931Z,12.73
2018-09-12T00:52:19.751Z,10.83
2018-09-12T00:54:48.594Z,13.40
2018-09-12T00:57:17.415Z,13.07
2018-09-12T00:59:46.311Z,11.33
2018-09-12T01:02:15.181Z,11.93
2018-09-12T01:04:44.149Z,13.27
2018-09-12T01:07:13.008Z,12.90
2018-09-12T01:09:41.918Z,12.37
2018-09-12T01:12:10.813Z,13.97
2018-09-12T01:14:39.639Z,12.97
2018-09-12T01:17:08.508Z,11.83
2018-09-12T01:19:37.325Z,14.33
2018-09-12T01:22:06.148Z,11.63
2018-09-12T01:24:35.013Z,13.43
2018-09-12T01:27:03.842Z,14.63
2018-09-12T01:29:32.712Z,11.87
2018-09-12T01:32:01.617Z,11.97
2018-09-12T01:34:30.489Z,12.13
2018-09-12T01:36:59.308Z,11.60
2018-09-12T01:39:28.162Z,13.47
2018-09-12T01:41:57.025Z,15.30
2018-09-12T01:44:25.825Z,11.93
2018-09-12T01:46:54.719Z,13.33
2018-09-12T01:49:23.519Z,13.43
2018-09-12T01:51:52.338Z,12.27
2018-09-12T01:54:21.227Z,12.57
2018-09-12T01:56:50.057Z,12.90
2018-09-12T01:59:18.883Z,10.83
2018-09-12T02:01:47.741Z,10.67
2018-09-12T02:04:16.546Z,13.70
2018-09-12T02:06:45.391Z,12.13
2018-09-12T02:09:15.343Z,13.40
2018-09-12T02:11:44.182Z,13.03
2018-09-12T02:14:13.044Z,11.83
2018-09-12T02:16:41.908Z,13.53
2018-09-12T02:19:10.711Z,11.73
2018-09-12T02:21:39.551Z,12.83
2018-09-12T02:24:08.406Z,13.53
2018-09-12T02:26:37.411Z,12.87
2018-09-12T02:29:06.441Z,14.50
2018-09-12T02:31:35.250Z,12.97
2018-09-12T02:34:04.102Z,12.97
2018-09-12T02:36:32.970Z,11.27
2018-09-12T02:39:01.791Z,16.13
2018-09-12T02:41:30.685Z,12.07
2018-09-12T02:43:59.635Z,14.97
2018-09-12T02:46:28.577Z,17.23
2018-09-12T02:48:57.455Z,15.40
2018-09-12T02:51:26.392Z,14.43
2018-09-12T02:53:55.260Z,14.57
2018-09-12T02:56:24.147Z,14.13
2018-09-12T02:58:53.082Z,15.03
2018-09-12T03:01:21.978Z,13.93
2018-09-12T03:07:06.003Z,14.63
2018-09-12T03:09:34.909Z,13.87
2018-09-12T03:12:03.749Z,14.37
2018-09-12T03:14:32.650Z,12.67
2018-09-12T03:17:01.494Z,12.97
2018-09-12T03:19:30.440Z,14.93
2018-09-12T03:21:59.325Z,13.70
2018-09-12T03:24:28.265Z,14.60
2018-09-12T03:26:57.119Z,14.30
2018-09-12T03:29:26.061Z,15.63
2018-09-12T03:31:54.923Z,18.67
2018-09-12T03:34:23.743Z,14.67
2018-09-12T03:36:54.272Z,16.13
2018-09-12T03:39:23.086Z,14.37
2018-09-12T03:41:51.918Z,15.07
2018-09-12T03:44:20.827Z,15.80
2018-09-12T03:46:49.653Z,15.60
2018-09-12T03:49:18.474Z,13.13
2018-09-12T03:51:47.301Z,13.87
2018-09-12T03:54:16.187Z,13.37
2018-09-12T03:56:45.003Z,16.67
2018-09-12T03:59:13.933Z,15.27
2018-09-12T04:01:42.794Z,14.70
2018-09-12T04:04:11.615Z,15.93
2018-09-12T04:06:40.437Z,14.73
2018-09-12T04:09:10.042Z,14.73
2018-09-12T04:11:38.880Z,14.23
2018-09-12T04:14:08.453Z,15.17
2018-09-12T04:16:39.024Z,15.13
2018-09-12T04:19:07.861Z,14.60
2018-09-12T04:21:36.693Z,14.07
2018-09-12T04:24:05.646Z,13.93
2018-09-12T04:26:35.104Z,13.87
2018-09-12T04:29:03.943Z,16.53
2018-09-12T04:31:34.201Z,16.97
2018-09-12T04:34:03.030Z,14.70
2018-09-12T04:36:31.853Z,16.37
2018-09-12T04:39:00.769Z,17.00
2018-09-12T04:41:29.608Z,15.87
2018-09-12T04:43:58.510Z,14.47
2018-09-12T04:46:28.802Z,16.13
2018-09-12T04:48:57.675Z,22.80
2018-09-12T04:51:26.570Z,14.97
2018-09-12T04:53:55.434Z,13.27
2018-09-12T04:56:24.249Z,13.70
2018-09-12T04:58:53.130Z,14.90
2018-09-12T05:01:22.069Z,14.63
2018-09-12T05:03:50.891Z,13.00
2018-09-12T05:06:19.714Z,13.03
2018-09-12T05:08:48.570Z,12.83
2018-09-12T05:11:17.442Z,11.83
2018-09-12T05:13:46.278Z,13.67
2018-09-12T05:16:15.137Z,14.53
2018-09-12T05:18:44.035Z,12.90
2018-09-12T05:21:12.827Z,13.90
2018-09-12T05:23:41.768Z,13.40
2018-09-12T05:26:10.622Z,13.43
2018-09-12T05:28:39.520Z,15.87
2018-09-12T05:31:08.338Z,16.13
2018-09-12T05:33:37.163Z,13.13
2018-09-12T05:36:06.325Z,13.87
2018-09-12T05:38:35.241Z,13.37
2018-09-12T05:41:04.090Z,14.63
2018-09-12T05:43:32.906Z,14.87
2018-09-12T05:46:01.770Z,15.77
2018-09-12T05:48:30.623Z,14.17
2018-09-12T05:50:59.445Z,13.93
2018-09-12T05:53:28.262Z,13.10
2018-09-12T05:55:57.118Z,16.33
2018-09-12T05:58:25.989Z,13.83
2018-09-12T06:00:54.810Z,15.93
2018-09-12T06:03:23.607Z,14.53
2018-09-12T06:05:52.474Z,13.33
2018-09-12T06:08:21.397Z,13.17
2018-09-12T06:10:50.342Z,17.73
2018-09-12T06:13:19.151Z,15.50
2018-09-12T06:15:48.046Z,14.83
2018-09-12T06:18:16.859Z,16.57
2018-09-12T06:20:45.707Z,16.33
2018-09-12T06:23:14.577Z,22.50
2018-09-12T06:25:43.394Z,18.47
2018-09-12T06:28:12.270Z,19.07
2018-09-12T06:30:41.191Z,20.17
2018-09-12T06:33:10.161Z,19.53
2018-09-12T06:35:39.139Z,20.37
2018-09-12T06:38:08.136Z,18.97
2018-09-12T06:40:37.124Z,19.37
2018-09-12T06:43:06.486Z,18.57
2018-09-12T06:45:36.680Z,17.27
2018-09-12T06:48:05.943Z,22.30
2018-09-12T06:50:34.899Z,18.13
2018-09-12T06:53:03.923Z,16.03
2018-09-12T06:55:33.014Z,17.77
2018-09-12T06:58:01.963Z,15.97
2018-09-12T07:00:30.900Z,15.60
2018-09-12T07:02:59.931Z,19.20
2018-09-12T07:05:28.906Z,15.87
2018-09-12T07:07:57.860Z,15.20
2018-09-12T07:10:26.824Z,14.73
2018-09-12T07:12:57.253Z,15.70
2018-09-12T07:15:26.232Z,15.37
2018-09-12T07:17:55.242Z,18.43
2018-09-12T07:20:24.451Z,17.97
2018-09-12T07:22:53.526Z,14.00
2018-09-12T07:25:22.442Z,14.77
2018-09-12T07:27:51.460Z,16.27
2018-09-12T07:30:20.465Z,13.93
2018-09-12T07:32:49.356Z,15.00
2018-09-12T07:35:18.339Z,15.10
2018-09-12T07:37:48.772Z,16.97
2018-09-12T07:40:18.003Z,16.37
2018-09-12T07:42:46.955Z,15.33
2018-09-12T07:45:15.941Z,15.10
2018-09-12T07:47:44.908Z,16.77
2018-09-12T07:50:13.819Z,16.43
2018-09-12T07:52:43.977Z,18.50
2018-09-12T07:55:13.015Z,17.23
2018-09-12T07:57:42.086Z,15.80
2018-09-12T08:00:12.753Z,15.83
2018-09-12T08:02:41.674Z,17.33
2018-09-12T08:05:10.721Z,16.50
2018-09-12T08:07:39.700Z,18.07
2018-09-12T08:10:08.709Z,16.90
2018-09-12T08:12:37.713Z,18.53
2018-09-12T08:15:07.992Z,20.63
2018-09-12T08:17:36.996Z,15.90
2018-09-12T08:20:05.984Z,16.33
2018-09-12T08:22:35.041Z,15.83
2018-09-12T08:25:05.517Z,16.43
2018-09-12T08:27:34.473Z,14.53
2018-09-12T08:30:04.893Z,24.33
2018-09-12T08:32:33.869Z,18.13
2018-09-12T08:35:02.864Z,13.77
2018-09-12T08:37:31.880Z,16.10
2018-09-12T08:40:00.901Z,15.17
2018-09-12T08:42:29.883Z,14.10
2018-09-12T08:44:59.082Z,14.17
2018-09-12T08:47:28.070Z,12.60
2018-09-12T08:49:57.055Z,16.53
2018-09-12T08:52:27.440Z,14.67
2018-09-12T08:54:56.428Z,15.17
2018-09-12T08:57:25.409Z,13.93
2018-09-12T08:59:56.164Z,16.33
2018-09-12T09:02:25.133Z,14.97
2018-09-12T09:04:54.076Z,16.60
2018-09-12T09:07:23.119Z,14.47
2018-09-12T09:09:52.040Z,13.53
2018-09-12T09:12:20.907Z,15.97
2018-09-12T09:14:49.873Z,15.00
2018-09-12T09:17:18.847Z,16.13
2018-09-12T09:19:47.775Z,17.20
2018-09-12T09:22:16.805Z,15.57
2018-09-12T09:24:45.756Z,15.23
2018-09-12T09:27:14.828Z,17.60
2018-09-12T09:29:43.815Z,15.37
2018-09-12T09:32:12.772Z,15.00
2018-09-12T09:34:41.768Z,15.80
2018-09-12T09:37:10.700Z,15.87
2018-09-12T09:39:39.695Z,15.23
2018-09-12T09:42:08.710Z,15.67
2018-09-12T09:44:37.633Z,16.33
2018-09-12T09:47:06.724Z,14.97
2018-09-12T09:49:35.671Z,15.63
2018-09-12T09:52:04.724Z,18.03
2018-09-12T09:54:33.722Z,15.80
2018-09-12T09:57:02.745Z,17.97
2018-09-12T09:59:31.705Z,15.37
2018-09-12T10:02:05.629Z,17.80
2018-09-12T10:04:39.627Z,18.27
2018-09-12T10:07:13.560Z,17.07
2018-09-12T10:09:42.592Z,15.43
2018-09-12T10:12:11.616Z,15.20
2018-09-12T10:14:40.572Z,15.53
2018-09-12T10:17:09.521Z,17.47
2018-09-12T10:19:38.459Z,15.57
2018-09-12T10:22:07.469Z,15.53
2018-09-12T10:24:36.511Z,16.07
2018-09-12T10:27:05.630Z,19.00
2018-09-12T10:29:34.573Z,18.17
2018-09-12T10:32:04.617Z,15.60
2018-09-12T10:34:33.580Z,17.27
2018-09-12T10:37:03.820Z,14.53
2018-09-12T10:39:32.718Z,14.90
2018-09-12T10:42:01.629Z,14.30
2018-09-12T10:44:30.612Z,13.80
2018-09-12T10:46:59.499Z,14.07
2018-09-12T10:49:28.379Z,13.33
2018-09-12T10:51:58.549Z,13.70
2018-09-12T10:54:27.419Z,14.27
2018-09-12T10:56:57.658Z,12.77
2018-09-12T10:59:27.840Z,15.57
2018-09-12T11:01:56.820Z,14.17
2018-09-12T11:04:25.929Z,12.77
2018-09-12T11:06:56.097Z,13.23
2018-09-12T11:09:25.079Z,12.20
2018-09-12T11:11:54.087Z,12.90
2018-09-12T11:14:23.055Z,12.07
2018-09-12T11:16:52.281Z,11.87
2018-09-12T11:19:21.237Z,13.17
2018-09-12T11:21:50.260Z,14.97
2018-09-12T11:24:19.240Z,13.87
2018-09-12T11:26:48.324Z,16.43
2018-09-12T11:29:17.231Z,13.57
2018-09-12T11:31:46.207Z,15.00
2018-09-12T11:34:15.170Z,15.37
2018-09-12T11:36:44.304Z,18.30
2018-09-12T11:39:13.382Z,13.83
2018-09-12T11:41:42.534Z,19.73
2018-09-12T11:44:11.587Z,24.90
2018-09-12T11:46:40.574Z,25.07
2018-09-12T11:49:09.668Z,24.33
2018-09-12T11:51:38.673Z,19.37
2018-09-12T11:54:07.668Z,22.57
2018-09-12T11:56:36.644Z,22.03
2018-09-12T11:59:05.620Z,24.23
2018-09-12T12:01:34.621Z,20.27
2018-09-12T12:04:03.675Z,23.50
2018-09-12T12:06:32.633Z,20.13
2018-09-12T12:09:01.616Z,22.80
2018-09-12T12:11:30.754Z,23.60
2018-09-12T12:13:59.736Z,25.57
2018-09-12T12:16:28.802Z,22.70
2018-09-12T12:18:59.016Z,22.37
2018-09-12T12:21:28.473Z,19.90
2018-09-12T12:23:57.458Z,20.37
2018-09-12T12:26:26.505Z,21.50
2018-09-12T12:28:55.632Z,21.00
2018-09-12T12:31:24.632Z,25.40
2018-09-12T12:33:53.637Z,22.27
2018-09-12T12:36:23.989Z,22.40
2018-09-12T12:38:52.988Z,26.20
2018-09-12T12:41:22.001Z,18.27
2018-09-12T12:43:51.019Z,18.30
2018-09-12T12:46:20.029Z,21.47
2018-09-12T12:48:50.208Z,20.37
2018-09-12T12:51:20.477Z,19.40
2018-09-12T12:53:49.458Z,19.30
2018-09-12T12:56:18.400Z,16.93
2018-09-12T12:58:47.500Z,19.83
2018-09-12T13:01:16.502Z,19.43
2018-09-12T13:03:45.500Z,22.63
2018-09-12T13:06:14.540Z,17.17
2018-09-12T13:08:43.544Z,16.67
2018-09-12T13:11:12.544Z,19.17
2018-09-12T13:13:41.657Z,17.57
2018-09-12T13:16:10.639Z,19.30
2018-09-12T13:18:39.655Z,15.80
2018-09-12T13:21:08.771Z,15.17
2018-09-12T13:23:37.812Z,15.30
2018-09-12T13:26:06.914Z,15.30
2018-09-12T13:28:36.163Z,13.63
2018-09-12T13:31:05.182Z,12.67
2018-09-12T13:33:34.192Z,14.87
2018-09-12T13:36:03.252Z,14.70
2018-09-12T13:38:32.225Z,18.80
2018-09-12T13:41:01.192Z,20.50
2018-09-12T13:43:30.276Z,19.60
2018-09-12T13:45:59.268Z,22.17
2018-09-12T13:48:28.270Z,20.77
2018-09-12T13:50:57.304Z,23.27
2018-09-12T13:53:26.283Z,22.80
2018-09-12T13:55:55.289Z,22.00
2018-09-12T13:58:24.151Z,27.77
2018-09-12T14:00:53.100Z,21.73
2018-09-12T14:03:22.178Z,28.40
2018-09-12T14:05:51.109Z,22.10
2018-09-12T14:08:20.132Z,22.53
2018-09-12T14:10:49.059Z,24.80
2018-09-12T14:13:18.049Z,23.33
2018-09-12T14:15:46.977Z,22.60
2018-09-12T14:18:15.853Z,20.83
2018-09-12T14:20:44.977Z,19.40
2018-09-12T14:23:13.931Z,19.10
2018-09-12T14:25:42.946Z,17.60
2018-09-12T14:28:11.869Z,18.77
2018-09-12T14:30:40.830Z,19.23
2018-09-12T14:33:09.708Z,18.70
2018-09-12T14:35:41.830Z,18.23
2018-09-12T14:38:10.741Z,17.47
2018-09-12T14:40:40.841Z,18.53
2018-09-12T14:43:11.364Z,18.00
2018-09-12T14:45:40.322Z,18.33
2018-09-12T14:48:09.225Z,17.90
2018-09-12T14:50:38.272Z,17.60
2018-09-12T14:53:07.293Z,16.93
2018-09-12T14:55:36.302Z,15.83
2018-09-12T14:58:06.594Z,15.33
2018-09-12T15:00:35.492Z,15.23
2018-09-12T15:03:04.539Z,15.77
2018-09-12T15:05:34.610Z,16.03
2018-09-12T15:08:03.518Z,15.83
2018-09-12T15:10:32.477Z,16.93
2018-09-12T15:13:01.690Z,16.20
2018-09-12T15:15:30.537Z,16.63
2018-09-12T15:17:59.410Z,16.63
2018-09-12T15:20:28.347Z,16.70
2018-09-12T15:22:57.249Z,20.43
2018-09-12T15:25:26.093Z,18.57
2018-09-12T15:27:56.307Z,18.27
2018-09-12T15:30:25.201Z,18.83
2018-09-12T15:32:54.082Z,18.40
2018-09-12T15:35:23.012Z,20.63
2018-09-12T15:37:52.044Z,19.87
2018-09-12T15:40:21.002Z,20.17
2018-09-12T15:42:49.942Z,20.53
2018-09-12T15:45:18.807Z,20.33
2018-09-12T15:47:47.691Z,18.03
2018-09-12T15:50:16.626Z,19.63
2018-09-12T15:52:45.571Z,18.50
2018-09-12T15:55:14.439Z,19.30
2018-09-12T15:57:43.352Z,20.60
2018-09-12T16:00:12.280Z,20.73
2018-09-12T16:02:41.227Z,19.80
2018-09-12T16:05:15.431Z,20.30
2018-09-12T16:07:44.588Z,20.23
2018-09-12T16:10:13.522Z,19.77
2018-09-12T16:12:48.508Z,23.27
2018-09-12T16:15:18.798Z,23.37
2018-09-12T16:17:47.703Z,22.40
2018-09-12T16:20:16.578Z,22.83
2018-09-12T16:22:45.579Z,23.40
2018-09-12T16:25:14.482Z,20.97
2018-09-12T16:27:43.362Z,20.70
2018-09-12T16:30:12.286Z,23.00
2018-09-12T16:32:41.221Z,21.83
2018-09-12T16:35:10.147Z,22.63
2018-09-12T16:37:39.034Z,22.93
2018-09-12T16:40:08.147Z,21.50
2018-09-12T16:42:37.005Z,21.57
2018-09-12T16:45:06.011Z,21.53
2018-09-12T16:47:34.982Z,21.70
2018-09-12T16:50:03.997Z,22.63
2018-09-12T16:52:33.222Z,22.37
2018-09-12T16:55:03.359Z,24.77
2018-09-12T16:57:32.223Z,27.13
2018-09-12T17:00:02.331Z,23.10
2018-09-12T17:02:32.453Z,24.80
2018-09-12T17:05:01.306Z,23.83
2018-09-12T17:07:30.149Z,24.80
2018-09-12T17:09:59.060Z,24.37
2018-09-12T17:12:27.873Z,24.93
2018-09-12T17:14:56.710Z,22.80
2018-09-12T17:17:25.568Z,21.50
2018-09-12T17:19:54.431Z,24.77
2018-09-12T17:22:23.290Z,26.83
2018-09-12T17:24:52.190Z,23.93
2018-09-12T17:27:21.059Z,25.40
2018-09-12T17:29:49.933Z,24.57
2018-09-12T17:32:18.877Z,23.73
2018-09-12T17:34:48.229Z,27.30
2018-09-12T17:37:17.068Z,26.37
2018-09-12T17:39:45.914Z,24.00
2018-09-12T17:42:14.816Z,22.60
2018-09-12T17:44:43.681Z,24.10
2018-09-12T17:47:12.598Z,27.40
2018-09-12T17:49:41.590Z,23.33
2018-09-12T17:52:10.456Z,23.93
2018-09-12T17:54:39.351Z,26.60
2018-09-12T17:57:08.310Z,26.17
2018-09-12T17:59:37.154Z,25.80
2018-09-12T18:02:06.022Z,27.10
2018-09-12T18:04:34.972Z,27.93
2018-09-12T18:07:03.825Z,25.87
2018-09-12T18:09:32.725Z,27.87
2018-09-12T18:12:01.682Z,27.63
2018-09-12T18:14:30.523Z,27.77
2018-09-12T18:16:59.388Z,25.30
2018-09-12T18:19:29.682Z,27.10
2018-09-12T18:21:58.683Z,29.67
2018-09-12T18:24:27.743Z,29.60
2018-09-12T18:26:56.640Z,27.87
2018-09-12T18:29:26.972Z,30.80
2018-09-12T18:31:55.814Z,30.20
2018-09-12T18:34:24.656Z,28.87
2018-09-12T18:36:53.615Z,30.87
2018-09-12T18:39:22.476Z,31.40
2018-09-12T18:41:51.331Z,26.40
2018-09-12T18:44:21.549Z,32.43
2018-09-12T18:46:50.383Z,29.80
2018-09-12T18:49:19.444Z,29.97
2018-09-12T18:51:48.299Z,28.70
2018-09-12T18:54:17.126Z,30.03
2018-09-12T18:56:45.986Z,25.97
2018-09-12T18:59:14.891Z,26.20
2018-09-12T19:01:43.827Z,30.17
2018-09-12T19:04:12.813Z,25.13
2018-09-12T19:06:44.581Z,23.90
2018-09-12T19:09:14.943Z,23.63
2018-09-12T19:11:43.868Z,21.57
2018-09-12T19:14:12.782Z,21.63
2018-09-12T19:16:53.912Z,21.50
2018-09-12T19:19:29.166Z,19.90
2018-09-12T19:21:58.200Z,23.30
2018-09-12T19:24:27.052Z,22.30
2018-09-12T19:26:55.905Z,22.37
2018-09-12T19:29:24.791Z,19.70
2018-09-12T19:31:53.688Z,25.07
2018-09-12T19:34:22.546Z,26.87
2018-09-12T19:36:51.447Z,25.93
2018-09-12T19:39:20.552Z,26.90
2018-09-12T19:41:50.934Z,28.33
2018-09-12T19:44:22.438Z,27.87
2018-09-12T19:46:51.322Z,26.73
2018-09-12T19:49:20.373Z,27.70
2018-09-12T19:51:49.406Z,27.90
2018-09-12T19:54:18.412Z,27.67
2018-09-12T19:56:47.928Z,30.57
2018-09-12T19:59:16.816Z,32.50
2018-09-12T20:01:45.707Z,29.60
2018-09-12T20:04:14.627Z,34.10
2018-09-12T20:06:43.510Z,30.43
2018-09-12T20:09:12.651Z,27.50
2018-09-12T20:11:41.838Z,32.73
2018-09-12T20:14:10.908Z,28.50
2018-09-12T20:16:39.774Z,27.83
2018-09-12T20:19:08.670Z,27.40
2018-09-12T20:21:37.518Z,27.40
2018-09-12T20:24:06.502Z,27.97
2018-09-12T20:26:35.327Z,25.23
2018-09-12T20:29:04.155Z,28.60
2018-09-12T20:31:33.045Z,26.30
2018-09-12T20:34:01.922Z,27.23
2018-09-12T20:36:30.738Z,29.07
2018-09-12T20:38:59.602Z,27.77
2018-09-12T20:41:28.484Z,29.57
2018-09-12T20:43:57.514Z,26.53
2018-09-12T20:46:26.347Z,26.47
2018-09-12T20:48:55.290Z,28.83
2018-09-12T20:51:25.350Z,29.77
2018-09-12T20:53:54.246Z,28.13
2018-09-12T20:56:23.075Z,30.27
2018-09-12T20:58:51.959Z,28.70
2018-09-12T21:01:20.793Z,27.83
2018-09-12T21:03:49.626Z,29.53
2018-09-12T21:06:18.497Z,27.97
2018-09-12T21:08:47.311Z,27.57
2018-09-12T21:11:16.138Z,25.63
2018-09-12T21:13:45.175Z,24.67
2018-09-12T21:16:14.018Z,28.50
2018-09-12T21:18:42.846Z,26.87
2018-09-12T21:21:11.706Z,26.63
2018-09-12T21:23:40.606Z,25.40
2018-09-12T21:26:09.505Z,30.47
2018-09-12T21:28:38.510Z,31.27
2018-09-12T21:31:07.430Z,27.17
2018-09-12T21:33:36.328Z,25.40
2018-09-12T21:36:05.306Z,27.73
2018-09-12T21:38:34.221Z,31.90
2018-09-12T21:41:03.194Z,29.17
2018-09-12T21:43:32.301Z,28.33
2018-09-12T21:46:01.162Z,29.73
2018-09-12T21:48:30.054Z,27.53
2018-09-12T21:50:58.942Z,28.13
2018-09-12T21:53:27.758Z,25.53
2018-09-12T21:55:56.573Z,30.93
2018-09-12T21:58:25.474Z,26.07
2018-09-12T22:00:54.436Z,27.97
2018-09-12T22:03:23.422Z,26.00
2018-09-12T22:05:52.344Z,29.73
2018-09-12T22:08:21.164Z,27.90
2018-09-12T22:10:50.050Z,30.40
2018-09-12T22:13:18.961Z,28.00
2018-09-12T22:15:48.357Z,28.07
2018-09-12T22:18:17.228Z,26.33
2018-09-12T22:20:46.066Z,27.03
2018-09-12T22:23:14.886Z,30.27
2018-09-12T22:25:43.871Z,28.43
2018-09-12T22:28:12.718Z,27.97
2018-09-12T22:30:41.555Z,30.97
2018-09-12T22:33:10.445Z,28.03
2018-09-12T22:35:39.273Z,28.93
2018-09-12T22:38:08.111Z,25.67
2018-09-12T22:40:38.237Z,27.40
2018-09-12T22:43:07.224Z,26.07
2018-09-12T22:45:36.072Z,30.50
2018-09-12T22:48:04.914Z,27.00
2018-09-12T22:50:33.896Z,24.07
2018-09-12T22:53:02.722Z,25.33
2018-09-12T22:55:31.551Z,26.17
2018-09-12T22:58:00.426Z,28.17
2018-09-12T23:00:29.347Z,26.73
2018-09-12T23:02:58.158Z,31.77
2018-09-12T23:05:27.075Z,27.27
2018-09-12T23:07:55.881Z,27.30
2018-09-12T23:10:24.708Z,27.73
2018-09-12T23:12:53.590Z,28.17
2018-09-12T23:15:22.430Z,28.73
2018-09-12T23:17:51.298Z,27.73
2018-09-12T23:20:20.158Z,27.87
2018-09-12T23:22:48.979Z,28.47
2018-09-12T23:25:17.867Z,28.17
2018-09-12T23:27:46.707Z,26.80
2018-09-12T23:30:15.510Z,27.43
2018-09-12T23:32:45.598Z,26.10
2018-09-12T23:35:14.455Z,25.40
2018-09-12T23:37:43.305Z,29.80
2018-09-12T23:40:12.159Z,30.40
2018-09-12T23:42:41.014Z,28.33
2018-09-12T23:45:09.849Z,27.07
2018-09-12T23:47:38.663Z,25.90
2018-09-12T23:50:07.641Z,24.40
2018-09-12T23:52:36.450Z,24.07
2018-09-12T23:55:05.316Z,25.70
2018-09-12T23:57:34.174Z,24.73
